KDDC

Dodge City Regional Airport

Dodge City, Kansas, USA
METAR KDDC 172152Z AUTO 08008KT 9SM CLR 30/17 A3011 RMK AO2 SLP163 T03000167
Observed Flight Rules
Aug-17 @ 21:52 UTC (46 minutes ago) Visual Flight Rules
Wind Visibility Clouds
80° at 8 knots 9 miles
  • Clear skies
Temperatures Readings
Current 30°C / 86°F
Dewpoint 17°C / 63°F
Humidity 46%
Altimeter 30.11" Hg
Pressure 1016.3 hPa
Elevation 789
METAR KDDC 172152Z AUTO 08008KT 9SM CLR 30/17 A3011 RMK AO2 SLP163 T03000167
Observed Flight Rules
Aug-17 @ 21:52 UTC
(46 minutes ago)
VFR
Wind Visibility
80° at 8 knots 9 miles
Clouds
  • Clear skies
Temperature Dewpoint
30°C / 86°F 17°C / 63°F
Humidity Altimeter Pressure
46% 30.11" Hg 1016.3 hPa